You are not logged in, Click here to log in
機場資訊:RJCC Welcome to Taiwan Airways 台灣虛擬航空
ICAO: RJCC Country: 日本北海道千歲市與苫小牧市交界
Latitude: 42.7876 Longitude: 141.679
Total Arrivals: 88 Total Departures: 87
Latest Arrival: HD4720 (RJTT-RJCC)LI WEN. Tu Latest Departure: BR115 (RJCC-RCTP)LI WEN. Tu
Scenery:
METAR : RJCC 151700Z 10005KT 070V170 9999 FEW010 BKN035 M01/M03 Q1009 RMK 1ST010 7CU035 A2982

新千歳空港 CTS

You are accessing this site from IP address 18.205.96.39. Virtual Airline. CMS by phpVMS.Website designed by Zumeweb and edited by Theo Bearman.
There is 0 User(s) Online: | and 11 Guest(s) Online.
All information on this site is for fight simulation purposes only. This site is for flight logging for pilots of Virtual Airline&模擬飛行論壇 FlySim only.